Relevés horaires Melle (Belgique)


Relevés horaires à Melle - Mercredi 25 Nov. 2015
Heure UTC1 Température [°C] Vent [km/h] Hum. [%] Pres.4 [hPa] Visi. [Km] Nébu. [octa] Préc.5 [mm] Cond.
2m. Res. Ros. Dir.2 Vit. Moy. Raf.3
23:00 4.5 4.5 2.9 ONO 3.7 7.4 11.1 89 1013.4(1.3/3h) -- -- -- --
22:00 4.8 4.8 3.7 ONO 3.7 3.7 5.6 93 1013(2.0/3h) -- -- -- --
21:00 4.8 4.8 3.6 O 3.7 5.6 9.3 92 1012.3(2.0/3h) -- -- -- --
20:00 5.3 5.3 4.0 ONO 1.9 5.6 9.3 91 1012(2.2/3h) -- -- -- --
19:00 5.1 5.1 3.7 O 1.9 3.7 5.6 91 1011(1.9/3h) -- -- -- --
18:00 5.3 5.3 3.7 O 3.7 14.8 22.2 89 1010.3(1.8/3h) -- -- 3/12h
--
17:00 6.0 5 4.1 ONO 5.6 9.3 16.7 88 1009.8(1.8/3h) -- -- -- --
16:00 5.8 4.8 3.9 NO 5.6 14.8 20.4 88 1009.1(1.2/3h) -- -- -- --
15:00 7.1 6.3 3.7 NO 5.6 14.8 22.2 79 1008.5(0.4/3h) -- -- -- --
14:00 8.4 6.9 3.2 NNO 9.3 13.0 18.5 70 1008(-0.5/3h) -- -- -- --
13:00 8.9 7.9 4.2 ONO 7.4 11.1 18.5 72 1007.9(-0.5/3h) -- -- -- --
12:00 9.4 8 4.8 NO 9.3 11.1 18.5 73 1008.1(-0.2/3h) -- -- 0.7/6h
--
11:00 8.5 7.4 5.1 ONO 7.4 9.3 13.0 79 1008.5(0.3/3h) -- -- -- --
10:00 7.0 6.1 5.4 O 5.6 7.4 13.0 90 1008.4(0.6/3h) -- -- -- --
09:00 6.5 5.6 5.2 OSO 5.6 7.4 11.1 91 1008.3(0.5/3h) -- -- -- --
08:00 5.8 4.8 4.5 O 5.6 7.4 11.1 91 1008.2(0.3/3h) -- -- -- --
07:00 5.7 4.7 4.4 OSO 5.6 7.4 11.1 91 1007.8(0.0/3h) -- -- -- --
06:00 6.1 4.6 4.9 OSO 7.4 7.4 13.0 92 1007.8(0.1/3h) -- -- 4/12h
--
05:00 6.1 6.1 5.0 OSO 3.7 5.6 7.4 93 1007.9(0.1/3h) -- -- -- --
04:00 6.2 6.2 5.1 OSO 3.7 5.6 9.3 93 1007.8(-0.1/3h) -- -- -- --
03:00 6.7 5.8 5.6 OSO 5.6 7.4 13.0 93 1007.7(-0.5/3h) -- -- -- --
02:00 6.8 5.9 5.7 OSO 5.6 7.4 13.0 93 1007.8(-0.6/3h) -- -- -- --
01:00 6.8 5.9 5.8 OSO 5.6 7.4 11.1 93 1007.9(-0.8/3h) -- -- -- --
00:00 6.7 5.8 5.7 OSO 5.6 9.3 14.8 93 1008.2(-0.7/3h) -- -- 3/6h
--

1 Coordinated Universal Time. Actuellement il est 02:00 locale et 00:00 UTC.

2 Le vent souffle depuis la direction indiquée vers la direction oposée.

3 Les rafales max. sont disponible 40 min après l'heure du relevé.

4 Pour les stations d'altitude (plus de 600m) le géopotentiel du niveau le plus proche de la pression obligatoire est indiqué.

5 Les stations disposant d'un diffuseur peuvent indiquer "trace". Cela signifie que des précipitations ont touchés le sol mais que la quantité est inférieure à 0.1 mm.

Récapitulatif de la journée
Température [°C] Vent [km/h] Ensoleillement4 [h] Precipitations totale5 [mm] Pression [Hpa]
Min1 Max.2 Moy.3 Max. Min Max.
5.6 9.5 8.5 22.2 0 h 0 min 0 1007.7 1013.4

1 Température minimale relevée entre 18:00 UTC la veille et 18:00 UTC le jour donné.

2 Température maximale relevée entre 06:00 UTC le jour donné et 06:00 UTC le lendemain.

3 Vent moyen de la journée basé sur les relevés horaires.

4 Ensoleillement en heures relevé entre 06:00 UTC la veille et 06:00 UTC le jour donné.

5 Précipitations totales tombées entre 06:00 UTC la jour donné et 06:00 UTC le lendemain.

Graphiques horaires